Albury
Weather
Information

and Archive.
Albury Local Internet Skycam This service provided and funded by Albury Local Internet

Help keep our weatherstation running:

Lavington Weatherstation live data - Conditions of Use

Last updated on 05-Apr-2020 at 19:07:01
Temperature
  Currently 14.9 degrees C
  Apparent Temperature ("Wind Chill") is 11.3 degrees C
  Today has ranged from  7.7 at 06:04 to 15.5 at 14:31
  Yesterday ranged from 10.4 at 23:57 to 17.3 at 15:10
Wind
  Now:   23.8kmh, gusting to  28.4kmh from 298 degrees (WNW)
  Hour:  20.6kmh, gusting to  35.3kmh
Rainfall
   4.6mm Midnight to Midnight (ie, yesterday)
   0.0mm Since Midnight (ie, so far today)
   1.4mm 9am yesterday to 9am today
  39.2mm Total this month
Misc items
  Relative humidity is 91%
  Dewpoint is 13.4 deg C
  Estimated Cloudbase is 600 feet
  Barometric Pressure is 1014.0 mbar
  Solar Insolation: 0 W/m^2
  UV Index: 0.0 (Low)
  Dust: PM2.5 1.2ug/m3 PM10 5.2ug/m3   AQI 5 (Good) *NEW*
Top Solar flares in the last 24 hours

Last 24 hours Temperature Graph (click graph for history)
temperature

Last 24 hours Dynamic Wind display (click image for 4-hour image):
Wind Rose

Current Yarrawonga Weather Radar and Infrared Satellite Images from the BOM.

Hourly summaries in the tables below are cumulative and peak values
for the preceding hour, and instantaneous values at the hour.
So far today, 05-Apr-2020
Time   Barom.  Wind + Gust    Direction   RH   Rain    Temp.  Minimum    Maximum
01:00  1011.0  12.3  21.6kmh  265 ( W )  100%  0.0mm   10.4  10.4@00:00 10.6@00:27
02:00  1011.0  11.3  20.9kmh  294 (WNW)  100%  0.0mm    9.4   9.4@01:59 10.4@01:00
03:00  1012.0  10.7  19.4kmh  286 (WNW)  100%  0.0mm    8.4   8.3@02:59  9.4@02:00
04:00  1012.0  11.2  19.4kmh  277 ( W )  100%  0.0mm    8.2   8.1@03:50  8.4@03:00
05:00  1012.0  10.7  17.6kmh  288 (WNW)  100%  0.0mm    8.1   8.0@04:12  8.4@04:40
06:00  1013.0  12.5  18.7kmh  303 (WNW)  100%  0.0mm    7.8   7.8@05:57  8.2@05:05
07:00  1014.0  15.0  23.8kmh  291 (WNW)  100%  0.0mm    8.1   7.7@06:04  8.1@06:54
08:00  1015.0  14.2  24.8kmh  281 ( W )  100%  0.0mm    9.9   8.1@07:00  9.9@07:57
09:00  1015.0  13.1  20.9kmh  274 ( W )  100%  0.0mm   10.2   9.7@08:04 10.3@08:56
10:00  1015.0  12.9  24.5kmh  298 (WNW)  100%  0.0mm   11.1  10.2@09:00 11.6@09:45
11:00  1015.0  14.5  28.4kmh  278 ( W )   99%  0.0mm   12.5  11.1@10:00 12.6@10:48
12:00  1014.0  18.3  40.7kmh  258 (WSW)   89%  0.0mm   14.2  12.5@11:00 14.6@11:54
13:00  1013.0  17.5  35.3kmh  302 (WNW)   89%  0.0mm   14.2  13.7@12:18 14.3@12:04
14:00  1013.0  18.0  32.4kmh  257 (WSW)   92%  0.0mm   14.2  14.1@13:36 14.6@13:20
15:00  1013.0  20.2  35.3kmh  300 (WNW)   90%  0.0mm   14.7  14.2@14:00 15.5@14:31
16:00  1013.0  19.2  37.4kmh  270 ( W )   92%  0.0mm   14.6  14.4@15:13 14.7@15:00
17:00  1013.0  19.1  31.3kmh  283 (WNW)   92%  0.0mm   14.8  14.6@16:00 14.8@16:51
18:00  1013.0  19.5  32.4kmh  264 ( W )   92%  0.0mm   14.8  14.8@17:00 14.9@17:08
19:00  1014.0  20.3  36.0kmh  288 (WNW)   92%  0.0mm   14.9  14.6@18:25 14.9@18:49
19:07  1014.0  20.6  35.3kmh  276 ( W )   91%  0.0mm   14.9  14.8@19:01 14.9@19:00


Summary for yesterday, 04-Apr-2020
Time   Barom.  Wind + Gust    Direction   RH   Rain    Temp.  Minimum    Maximum
01:00  1000.0  11.9  18.7kmh    2 ( N )  100%  0.0mm   15.5  15.5@00:54 15.7@00:08
02:00   998.0  11.6  21.6kmh  347 (NNW)  100%  0.0mm   15.9  15.5@01:00 16.0@01:57
03:00   997.0  11.4  27.0kmh  351 ( N )  100%  0.0mm   16.1  15.9@02:00 16.1@02:10
04:00   996.0   9.3  16.2kmh  324 ( NW)  100%  0.0mm   16.1  15.9@03:15 16.2@03:47
05:00   996.0  13.8  33.1kmh  175 ( S )  100%  1.2mm   14.4  14.4@04:59 16.2@04:03
06:00   996.0  12.9  32.4kmh  197 (SSW)  100%  1.0mm   13.4  13.4@05:54 14.4@05:00
07:00   997.0   8.3  18.7kmh  264 ( W )  100%  0.0mm   13.3  13.2@06:38 13.4@06:00
08:00   998.0  13.4  23.0kmh  283 (WNW)  100%  0.4mm   13.1  13.1@07:58 13.4@07:27
09:00  1000.0  18.9  36.7kmh  233 ( SW)  100%  0.6mm   12.4  12.4@08:36 13.1@08:00
10:00  1001.0  19.3  34.6kmh  270 ( W )  100%  0.2mm   13.2  12.3@09:13 13.4@09:57
11:00  1001.0  20.3  37.4kmh  244 (WSW)  100%  0.0mm   11.7  11.8@10:59 14.1@10:14
12:00  1002.0  15.9  40.0kmh  269 ( W )   97%  0.0mm   14.6  11.6@11:01 15.1@11:40
13:00  1001.0  19.7  34.6kmh  274 ( W )   93%  0.0mm   15.1  14.6@12:00 15.9@12:47
14:00  1001.0  18.4  38.2kmh  270 ( W )   99%  0.2mm   14.5  13.9@13:20 15.8@13:04
15:00  1002.0  21.8  37.4kmh  259 ( W )   83%  0.0mm   16.5  14.4@14:01 16.6@14:56
16:00  1003.0  22.0  42.8kmh  264 ( W )   80%  0.0mm   15.4  14.6@15:53 17.3@15:10
17:00  1004.0  21.0  40.0kmh  245 (WSW)   67%  0.0mm   15.5  14.3@16:24 16.4@16:06
18:00  1005.0  18.9  36.0kmh  275 ( W )   70%  0.0mm   14.4  14.4@17:58 16.1@17:10
19:00  1007.0  18.6  40.7kmh  214 ( SW)  100%  1.0mm   11.0  11.0@18:59 14.4@18:00
20:00  1007.0  15.4  34.6kmh  254 (WSW)  100%  0.0mm   11.3  10.9@19:02 11.2@19:41
21:00  1008.0  19.1  33.1kmh  263 ( W )  100%  0.0mm   11.3  11.0@20:42 11.4@20:57
22:00  1009.0  19.4  34.6kmh  270 ( W )  100%  0.0mm   11.7  11.2@21:17 11.7@21:55
23:00  1010.0  17.9  32.4kmh  277 ( W )   98%  0.0mm   11.2  11.2@22:49 11.7@22:00
00:00  1010.0  15.1  27.7kmh  278 ( W )  100%  0.0mm   10.4  10.4@23:57 11.2@23:00